createdAt,value
2023-03-06T00:01:08.661Z,-2.95
2023-03-06T00:03:36.357Z,-2.95
2023-03-06T00:06:04.163Z,-2.96
2023-03-06T00:08:31.807Z,-2.97
2023-03-06T00:10:59.571Z,-2.98
2023-03-06T00:13:30.069Z,-2.99
2023-03-06T00:16:00.160Z,-3.00
2023-03-06T00:18:27.758Z,-3.03
2023-03-06T00:20:55.409Z,-3.03
2023-03-06T00:23:23.022Z,-3.06
2023-03-06T00:25:50.645Z,-3.07
2023-03-06T00:28:18.250Z,-3.07
2023-03-06T00:30:48.723Z,-3.08
2023-03-06T00:33:16.347Z,-3.08
2023-03-06T00:35:44.077Z,-3.08
2023-03-06T00:38:14.385Z,-3.09
2023-03-06T00:40:41.996Z,-3.09
2023-03-06T00:43:09.928Z,-3.10
2023-03-06T00:45:38.012Z,-3.11
2023-03-06T00:48:05.990Z,-3.12
2023-03-06T00:50:35.180Z,-3.14
2023-03-06T00:53:03.323Z,-3.16
2023-03-06T00:55:33.329Z,-3.18
2023-03-06T00:58:01.015Z,-3.18
2023-03-06T01:00:29.022Z,-3.19
2023-03-06T01:02:56.839Z,-3.19
2023-03-06T01:05:24.965Z,-3.19
2023-03-06T01:07:53.005Z,-3.20
2023-03-06T01:10:20.873Z,-3.20
2023-03-06T01:12:49.176Z,-3.18
2023-03-06T01:15:16.807Z,-3.17
2023-03-06T01:17:44.944Z,-3.16
2023-03-06T01:20:17.607Z,-3.14
2023-03-06T01:22:45.897Z,-3.14
2023-03-06T01:25:14.262Z,-3.14
2023-03-06T01:27:42.044Z,-3.14
2023-03-06T01:30:12.259Z,-3.14
2023-03-06T01:32:40.043Z,-3.14
2023-03-06T01:35:12.045Z,-3.15
2023-03-06T01:37:40.218Z,-3.15
2023-03-06T01:40:12.430Z,-3.15
2023-03-06T01:42:40.450Z,-3.15
2023-03-06T01:45:28.507Z,-3.14
2023-03-06T01:47:56.097Z,-3.15
2023-03-06T01:50:23.860Z,-3.15
2023-03-06T01:52:55.797Z,-3.14
2023-03-06T01:55:26.728Z,-3.13
2023-03-06T01:57:57.847Z,-3.13
2023-03-06T02:00:27.963Z,-3.13
2023-03-06T02:03:14.863Z,-3.14
2023-03-06T02:05:44.405Z,-3.16
2023-03-06T02:08:16.539Z,-3.19
2023-03-06T02:11:15.636Z,-3.21
2023-03-06T02:13:44.610Z,-3.26
2023-03-06T02:16:14.139Z,-3.28
2023-03-06T02:18:43.142Z,-3.30
2023-03-06T02:21:14.355Z,-3.29
2023-03-06T02:23:54.618Z,-3.30
2023-03-06T02:26:22.615Z,-3.30
2023-03-06T02:28:50.305Z,-3.30
2023-03-06T02:31:27.674Z,-3.29
2023-03-06T02:34:27.761Z,-3.27
2023-03-06T02:37:01.568Z,-3.28
2023-03-06T02:39:31.581Z,-3.28
2023-03-06T02:41:59.380Z,-3.28
2023-03-06T02:44:28.775Z,-3.27
2023-03-06T02:46:56.403Z,-3.26
2023-03-06T02:49:26.379Z,-3.25
2023-03-06T02:51:54.244Z,-3.25
2023-03-06T02:54:21.910Z,-3.25
2023-03-06T02:56:50.277Z,-3.24
2023-03-06T02:59:18.222Z,-3.23
2023-03-06T03:01:47.948Z,-3.23
2023-03-06T03:04:16.385Z,-3.21
2023-03-06T03:06:44.330Z,-3.21
2023-03-06T03:09:12.407Z,-3.20
2023-03-06T03:11:40.592Z,-3.21
2023-03-06T03:14:08.295Z,-3.20
2023-03-06T03:16:37.528Z,-3.19
2023-03-06T03:19:06.735Z,-3.19
2023-03-06T03:21:34.794Z,-3.19
2023-03-06T03:24:02.510Z,-3.20
2023-03-06T03:26:30.163Z,-3.17
2023-03-06T03:29:05.212Z,-3.16
2023-03-06T03:31:33.081Z,-3.15
2023-03-06T03:34:01.658Z,-3.13
2023-03-06T03:36:30.103Z,-3.13
2023-03-06T03:38:58.620Z,-3.12
2023-03-06T03:41:26.307Z,-3.11
2023-03-06T03:43:53.982Z,-3.10
2023-03-06T03:46:21.940Z,-3.10
2023-03-06T03:48:50.525Z,-3.11
2023-03-06T03:51:19.007Z,-3.12
2023-03-06T03:53:49.390Z,-3.13
2023-03-06T03:56:19.419Z,-3.14
2023-03-06T03:58:54.555Z,-3.14
2023-03-06T04:01:23.180Z,-3.12
2023-03-06T04:03:51.286Z,-3.10
2023-03-06T04:06:19.672Z,-3.05
2023-03-06T04:08:47.807Z,-3.01
2023-03-06T04:11:16.093Z,-2.96
2023-03-06T04:13:44.367Z,-2.91
2023-03-06T04:16:12.112Z,-2.87
2023-03-06T04:18:40.819Z,-2.84
2023-03-06T04:21:09.064Z,-2.81
2023-03-06T04:23:37.723Z,-2.80
2023-03-06T04:26:06.682Z,-2.80
2023-03-06T04:28:34.576Z,-2.81
2023-03-06T04:31:02.590Z,-2.82
2023-03-06T04:33:31.080Z,-2.82
2023-03-06T04:35:59.482Z,-2.82
2023-03-06T04:38:29.430Z,-2.80
2023-03-06T04:40:57.076Z,-2.79
2023-03-06T04:43:24.731Z,-2.77
2023-03-06T04:45:52.386Z,-2.74
2023-03-06T04:48:20.148Z,-2.71
2023-03-06T04:50:47.839Z,-2.69
2023-03-06T04:53:16.845Z,-2.65
2023-03-06T04:55:44.566Z,-2.60
2023-03-06T04:58:12.284Z,-2.56
2023-03-06T05:00:39.988Z,-2.52
2023-03-06T05:03:08.805Z,-2.48
2023-03-06T05:05:36.430Z,-2.44
2023-03-06T05:08:04.310Z,-2.40
2023-03-06T05:10:31.967Z,-2.36
2023-03-06T05:12:59.619Z,-2.34
2023-03-06T05:15:27.237Z,-2.31
2023-03-06T05:17:56.476Z,-2.29
2023-03-06T05:20:24.336Z,-2.26
2023-03-06T05:22:51.984Z,-2.22
2023-03-06T05:25:19.623Z,-2.19
2023-03-06T05:27:47.563Z,-2.16
2023-03-06T05:30:15.424Z,-2.13
2023-03-06T05:32:43.278Z,-2.09
2023-03-06T05:35:20.694Z,-2.07
2023-03-06T05:37:48.838Z,-2.05
2023-03-06T05:40:16.726Z,-2.04
2023-03-06T05:42:44.925Z,-2.01
2023-03-06T05:45:12.614Z,-1.99
2023-03-06T05:47:40.295Z,-1.95
2023-03-06T05:50:10.412Z,-1.91
2023-03-06T05:52:39.577Z,-1.88
2023-03-06T05:55:08.080Z,-1.84
2023-03-06T05:57:35.686Z,-1.81
2023-03-06T06:00:04.013Z,-1.77
2023-03-06T06:02:41.579Z,-1.75
2023-03-06T06:05:12.556Z,-1.73
2023-03-06T06:07:41.327Z,-1.72
2023-03-06T06:10:09.710Z,-1.69
2023-03-06T06:12:37.438Z,-1.65
2023-03-06T06:15:06.630Z,-1.62
2023-03-06T06:17:34.538Z,-1.59
2023-03-06T06:20:02.345Z,-1.54
2023-03-06T06:22:29.977Z,-1.48
2023-03-06T06:24:57.848Z,-1.43
2023-03-06T06:27:25.428Z,-1.42
2023-03-06T06:29:53.032Z,-1.41
2023-03-06T06:32:20.689Z,-1.38
2023-03-06T06:34:48.345Z,-1.33
2023-03-06T06:37:16.692Z,-1.27
2023-03-06T06:39:44.284Z,-1.22
2023-03-06T06:42:30.274Z,-1.17
2023-03-06T06:44:59.694Z,-1.13
2023-03-06T06:47:27.316Z,-1.08
2023-03-06T06:49:56.178Z,-1.02
2023-03-06T06:52:24.846Z,-0.95
2023-03-06T06:54:52.920Z,-0.89
2023-03-06T06:57:20.667Z,-0.83
2023-03-06T06:59:48.300Z,-0.78
2023-03-06T07:02:16.427Z,-0.74
2023-03-06T07:05:00.636Z,-0.67
2023-03-06T07:07:32.958Z,-0.64
2023-03-06T07:10:00.695Z,-0.61
2023-03-06T07:12:28.406Z,-0.54
2023-03-06T07:14:56.055Z,-0.49
2023-03-06T07:17:23.638Z,-0.43
2023-03-06T07:19:51.426Z,-0.35
2023-03-06T07:22:19.024Z,-0.30
2023-03-06T07:24:46.751Z,-0.25
2023-03-06T07:27:14.345Z,-0.18
2023-03-06T07:29:44.733Z,-0.14
2023-03-06T07:32:12.530Z,-0.09
2023-03-06T07:34:40.232Z,-0.06
2023-03-06T07:37:07.869Z,-0.02
2023-03-06T07:39:35.780Z,0.05
2023-03-06T07:42:04.179Z,0.13
2023-03-06T07:44:36.524Z,0.18
2023-03-06T07:47:05.308Z,0.22
2023-03-06T07:49:34.243Z,0.26
2023-03-06T07:52:02.012Z,0.31
2023-03-06T07:54:30.775Z,0.31
2023-03-06T07:56:58.634Z,0.29
2023-03-06T07:59:26.299Z,0.29
2023-03-06T08:01:55.467Z,0.31
2023-03-06T08:04:23.222Z,0.35
2023-03-06T08:06:50.822Z,0.41
2023-03-06T08:09:18.433Z,0.49
2023-03-06T08:11:46.090Z,0.48
2023-03-06T08:14:13.749Z,0.45
2023-03-06T08:16:41.439Z,0.43
2023-03-06T08:19:09.392Z,0.43
2023-03-06T08:21:37.047Z,0.40
2023-03-06T08:24:06.287Z,0.41
2023-03-06T08:26:34.718Z,0.41
2023-03-06T08:29:03.273Z,0.40
2023-03-06T08:31:32.273Z,0.37
2023-03-06T08:34:02.314Z,0.40
2023-03-06T08:36:30.030Z,0.43
2023-03-06T08:38:58.173Z,0.45
2023-03-06T08:41:25.931Z,0.49
2023-03-06T08:43:53.547Z,0.53
2023-03-06T08:46:23.299Z,0.55
2023-03-06T08:48:51.059Z,0.54
2023-03-06T08:51:19.485Z,0.55
2023-03-06T08:53:47.128Z,0.56
2023-03-06T08:56:20.146Z,0.57
2023-03-06T08:58:48.678Z,0.56
2023-03-06T09:01:21.685Z,0.53
2023-03-06T09:03:49.781Z,0.57
2023-03-06T09:06:17.721Z,0.61
2023-03-06T09:08:45.340Z,0.65
2023-03-06T09:11:15.031Z,0.71
2023-03-06T09:13:43.058Z,0.78
2023-03-06T09:16:11.458Z,0.81
2023-03-06T09:18:39.366Z,0.81
2023-03-06T09:21:08.015Z,0.81
2023-03-06T09:23:37.115Z,0.83
2023-03-06T09:26:05.641Z,0.82
2023-03-06T09:28:36.016Z,0.83
2023-03-06T09:31:25.609Z,0.85
2023-03-06T09:33:53.199Z,0.78
2023-03-06T09:36:22.105Z,0.73
2023-03-06T09:38:50.571Z,0.69
2023-03-06T09:41:36.057Z,0.68
2023-03-06T09:44:20.232Z,0.71
2023-03-06T09:47:01.069Z,0.74
2023-03-06T09:50:06.066Z,0.73
2023-03-06T09:52:45.957Z,0.70
2023-03-06T09:55:18.098Z,0.76
2023-03-06T09:57:55.893Z,0.81
2023-03-06T10:00:32.112Z,0.86
2023-03-06T10:03:14.165Z,0.91
2023-03-06T10:05:46.509Z,1.00
2023-03-06T10:08:21.669Z,1.07
2023-03-06T10:11:26.367Z,1.20
2023-03-06T10:14:10.039Z,1.30
2023-03-06T10:16:37.732Z,1.40
2023-03-06T10:19:12.817Z,1.53
2023-03-06T10:21:46.574Z,1.65
2023-03-06T10:24:30.644Z,1.78
2023-03-06T10:27:16.627Z,1.86
2023-03-06T10:30:02.267Z,1.91
2023-03-06T10:32:55.245Z,1.94
2023-03-06T10:35:30.376Z,2.01
2023-03-06T10:38:01.647Z,2.07
2023-03-06T10:40:36.199Z,2.11
2023-03-06T10:43:12.104Z,2.11
2023-03-06T10:45:49.776Z,2.16
2023-03-06T10:48:20.689Z,2.19
2023-03-06T10:50:48.508Z,2.21
2023-03-06T10:53:24.070Z,2.20
2023-03-06T10:55:59.317Z,2.21
2023-03-06T10:58:29.997Z,2.19
2023-03-06T11:01:07.231Z,2.20
2023-03-06T11:03:36.594Z,2.26
2023-03-06T11:06:13.385Z,2.32
2023-03-06T11:08:43.517Z,2.38
2023-03-06T11:11:14.478Z,2.45
2023-03-06T11:13:44.071Z,2.52
2023-03-06T11:16:30.646Z,2.60
2023-03-06T11:19:01.213Z,2.63
2023-03-06T11:21:32.890Z,2.66
2023-03-06T11:24:04.102Z,2.69
2023-03-06T11:26:54.999Z,2.69
2023-03-06T11:29:34.571Z,2.60
2023-03-06T11:32:09.378Z,2.57
2023-03-06T11:34:51.263Z,2.62
2023-03-06T11:37:30.833Z,2.67
2023-03-06T11:40:07.975Z,2.66
2023-03-06T11:42:54.266Z,2.69
2023-03-06T11:45:43.641Z,2.69
2023-03-06T11:48:19.306Z,2.70
2023-03-06T11:50:57.590Z,2.67
2023-03-06T11:53:33.342Z,2.63
2023-03-06T11:56:19.572Z,2.60
2023-03-06T11:59:21.425Z,2.54
2023-03-06T12:01:54.772Z,2.52
2023-03-06T12:04:40.035Z,2.49
2023-03-06T12:07:55.912Z,2.45
2023-03-06T12:10:33.696Z,2.37
2023-03-06T12:13:58.333Z,2.35
2023-03-06T12:16:35.063Z,2.38
2023-03-06T12:19:28.392Z,2.42
2023-03-06T12:22:22.188Z,2.43
2023-03-06T12:25:20.507Z,2.45
2023-03-06T12:27:57.031Z,2.48
2023-03-06T12:30:58.612Z,2.56
2023-03-06T12:33:49.444Z,2.68
2023-03-06T12:36:33.652Z,2.76
2023-03-06T12:39:46.676Z,2.79
2023-03-06T12:42:40.109Z,2.85
2023-03-06T12:45:22.502Z,2.90
2023-03-06T12:47:55.561Z,2.92
2023-03-06T12:50:31.103Z,2.92
2023-03-06T12:53:02.087Z,2.96
2023-03-06T12:55:39.112Z,2.99
2023-03-06T12:58:31.786Z,3.01
2023-03-06T13:01:30.444Z,2.99
2023-03-06T13:04:17.093Z,2.98
2023-03-06T13:07:08.081Z,2.96
2023-03-06T13:10:10.340Z,2.94
2023-03-06T13:12:49.857Z,2.92
2023-03-06T13:15:29.397Z,2.92
2023-03-06T13:17:57.527Z,2.91
2023-03-06T13:20:29.565Z,2.88
2023-03-06T13:22:58.497Z,2.86
2023-03-06T13:25:26.118Z,2.85
2023-03-06T13:27:53.948Z,2.84
2023-03-06T13:30:36.786Z,2.85
2023-03-06T13:33:26.689Z,2.87
2023-03-06T13:35:56.713Z,2.88
2023-03-06T13:38:34.560Z,2.91
2023-03-06T13:41:20.381Z,2.91
2023-03-06T13:43:52.968Z,2.90
2023-03-06T13:46:24.933Z,2.91
2023-03-06T13:49:08.158Z,2.88
2023-03-06T13:51:43.870Z,2.90
2023-03-06T13:54:42.439Z,2.93
2023-03-06T13:57:47.685Z,2.93
2023-03-06T14:00:25.834Z,2.91
2023-03-06T14:03:04.936Z,2.92
2023-03-06T14:05:46.520Z,2.95
2023-03-06T14:08:23.972Z,2.95
2023-03-06T14:11:05.834Z,2.92
2023-03-06T14:13:46.608Z,2.91
2023-03-06T14:16:21.180Z,2.90
2023-03-06T14:18:51.632Z,2.91
2023-03-06T14:21:37.474Z,2.93
2023-03-06T14:24:05.715Z,2.92
2023-03-06T14:26:40.350Z,2.93
2023-03-06T14:29:20.282Z,2.92
2023-03-06T14:31:53.127Z,2.90
2023-03-06T14:34:23.038Z,2.87
2023-03-06T14:36:53.028Z,2.84
2023-03-06T14:39:23.887Z,2.81
2023-03-06T14:41:51.531Z,2.78
2023-03-06T14:44:21.770Z,2.77
2023-03-06T14:46:51.668Z,2.76
2023-03-06T14:49:20.803Z,2.78
2023-03-06T14:51:56.362Z,2.80
2023-03-06T14:54:50.352Z,2.81
2023-03-06T14:57:20.051Z,2.81
2023-03-06T14:59:56.372Z,2.79
2023-03-06T15:02:28.266Z,2.80
2023-03-06T15:05:03.204Z,2.82
2023-03-06T15:07:32.541Z,2.84
2023-03-06T15:10:00.776Z,2.85
2023-03-06T15:12:31.047Z,2.84
2023-03-06T15:15:02.759Z,2.81
2023-03-06T15:17:41.577Z,2.77
2023-03-06T15:20:46.939Z,2.75
2023-03-06T15:23:22.290Z,2.70
2023-03-06T15:25:58.099Z,2.66
2023-03-06T15:28:40.027Z,2.63
2023-03-06T15:31:22.008Z,2.58
2023-03-06T15:34:04.089Z,2.46
2023-03-06T15:36:55.193Z,2.38
2023-03-06T15:39:39.255Z,2.32
2023-03-06T15:42:18.289Z,2.22
2023-03-06T15:44:52.861Z,2.18
2023-03-06T15:47:21.442Z,2.13
2023-03-06T15:49:52.105Z,2.11
2023-03-06T15:52:23.221Z,2.10
2023-03-06T15:54:50.900Z,2.10
2023-03-06T15:57:29.168Z,2.10
2023-03-06T15:59:58.369Z,2.08
2023-03-06T16:02:26.110Z,2.04
2023-03-06T16:04:53.917Z,1.96
2023-03-06T16:07:21.632Z,1.87
2023-03-06T16:09:49.256Z,1.83
2023-03-06T16:12:18.849Z,1.78
2023-03-06T16:14:47.649Z,1.75
2023-03-06T16:17:16.229Z,1.73
2023-03-06T16:19:43.893Z,1.72
2023-03-06T16:22:11.846Z,1.72
2023-03-06T16:24:39.648Z,1.72
2023-03-06T16:27:07.274Z,1.72
2023-03-06T16:29:35.183Z,1.72
2023-03-06T16:32:04.412Z,1.74
2023-03-06T16:34:32.075Z,1.73
2023-03-06T16:36:59.678Z,1.74
2023-03-06T16:39:27.271Z,1.74
2023-03-06T16:41:55.251Z,1.74
2023-03-06T16:44:22.864Z,1.75
2023-03-06T16:46:50.544Z,1.74
2023-03-06T16:49:20.642Z,1.74
2023-03-06T16:51:49.320Z,1.73
2023-03-06T16:54:17.336Z,1.74
2023-03-06T16:56:45.332Z,1.74
2023-03-06T16:59:13.263Z,1.74
2023-03-06T17:01:43.253Z,1.75
2023-03-06T17:04:11.491Z,1.75
2023-03-06T17:06:39.821Z,1.75
2023-03-06T17:09:07.468Z,1.74
2023-03-06T17:11:38.582Z,1.74
2023-03-06T17:14:07.019Z,1.73
2023-03-06T17:16:37.202Z,1.72
2023-03-06T17:19:04.853Z,1.71
2023-03-06T17:21:35.307Z,1.71
2023-03-06T17:24:03.828Z,1.71
2023-03-06T17:26:31.602Z,1.71
2023-03-06T17:28:59.225Z,1.70
2023-03-06T17:31:27.672Z,1.71
2023-03-06T17:34:00.487Z,1.72
2023-03-06T17:36:29.905Z,1.73
2023-03-06T17:38:58.691Z,1.74
2023-03-06T17:41:27.070Z,1.76
2023-03-06T17:43:55.968Z,1.78
2023-03-06T17:46:23.988Z,1.79
2023-03-06T17:48:51.834Z,1.80
2023-03-06T17:51:19.473Z,1.81
2023-03-06T17:53:47.081Z,1.82
2023-03-06T17:56:15.478Z,1.83
2023-03-06T17:58:43.080Z,1.82
2023-03-06T18:01:13.173Z,1.82
2023-03-06T18:03:44.359Z,1.82
2023-03-06T18:06:12.175Z,1.82
2023-03-06T18:08:41.057Z,1.81
2023-03-06T18:11:10.404Z,1.80
2023-03-06T18:13:40.429Z,1.82
2023-03-06T18:16:10.495Z,1.83
2023-03-06T18:18:38.476Z,1.82
2023-03-06T18:21:08.968Z,1.81
2023-03-06T18:23:38.253Z,1.82
2023-03-06T18:26:13.678Z,1.80
2023-03-06T18:28:44.478Z,1.79
2023-03-06T18:31:24.602Z,1.78
2023-03-06T18:33:54.079Z,1.77
2023-03-06T18:36:23.887Z,1.77
2023-03-06T18:38:52.317Z,1.79
2023-03-06T18:41:21.516Z,1.81
2023-03-06T18:43:53.462Z,1.82
2023-03-06T18:46:21.654Z,1.81
2023-03-06T18:48:49.301Z,1.80
2023-03-06T18:51:17.854Z,1.81
2023-03-06T18:53:45.958Z,1.82
2023-03-06T18:56:19.855Z,1.82
2023-03-06T18:58:48.816Z,1.82
2023-03-06T19:01:17.537Z,1.81
2023-03-06T19:03:45.727Z,1.81
2023-03-06T19:06:16.821Z,1.82
2023-03-06T19:08:45.061Z,1.82
2023-03-06T19:11:15.161Z,1.82
2023-03-06T19:13:43.644Z,1.83
2023-03-06T19:16:22.571Z,1.84
2023-03-06T19:18:50.904Z,1.81
2023-03-06T19:21:20.251Z,1.80
2023-03-06T19:23:48.143Z,1.78
2023-03-06T19:26:18.642Z,1.78
2023-03-06T19:28:47.704Z,1.77
2023-03-06T19:31:20.812Z,1.77
2023-03-06T19:33:49.603Z,1.76
2023-03-06T19:36:20.204Z,1.76
2023-03-06T19:38:52.516Z,1.76
2023-03-06T19:41:20.108Z,1.74
2023-03-06T19:43:52.056Z,1.72
2023-03-06T19:46:21.355Z,1.69
2023-03-06T19:48:54.399Z,1.68
2023-03-06T19:51:22.124Z,1.66
2023-03-06T19:53:49.727Z,1.66
2023-03-06T19:56:22.574Z,1.68
2023-03-06T19:58:50.964Z,1.68
2023-03-06T20:01:20.245Z,1.68
2023-03-06T20:03:49.368Z,1.70
2023-03-06T20:06:19.464Z,1.69
2023-03-06T20:08:47.813Z,1.70
2023-03-06T20:11:16.892Z,1.71
2023-03-06T20:13:47.468Z,1.72
2023-03-06T20:16:16.920Z,1.73
2023-03-06T20:18:45.472Z,1.68
2023-03-06T20:21:13.708Z,1.61
2023-03-06T20:23:41.864Z,1.53
2023-03-06T20:26:12.254Z,1.45
2023-03-06T20:28:41.186Z,1.37
2023-03-06T20:31:18.167Z,1.31
2023-03-06T20:33:47.522Z,1.26
2023-03-06T20:36:18.094Z,1.23
2023-03-06T20:38:47.152Z,1.21
2023-03-06T20:41:16.439Z,1.20
2023-03-06T20:43:44.477Z,1.17
2023-03-06T20:46:13.019Z,1.12
2023-03-06T20:48:41.579Z,1.09
2023-03-06T20:51:16.175Z,1.06
2023-03-06T20:53:44.013Z,1.04
2023-03-06T20:56:15.961Z,1.00
2023-03-06T20:58:44.341Z,0.95
2023-03-06T21:01:21.429Z,0.90
2023-03-06T21:03:49.372Z,0.90
2023-03-06T21:06:17.869Z,0.87
2023-03-06T21:08:45.527Z,0.85
2023-03-06T21:11:13.333Z,0.83
2023-03-06T21:13:40.927Z,0.82
2023-03-06T21:16:11.629Z,0.80
2023-03-06T21:18:40.019Z,0.85
2023-03-06T21:21:09.466Z,0.84
2023-03-06T21:23:37.939Z,0.84
2023-03-06T21:26:05.647Z,0.85
2023-03-06T21:28:33.323Z,0.85
2023-03-06T21:31:01.893Z,0.82
2023-03-06T21:33:29.721Z,0.81
2023-03-06T21:35:57.341Z,0.76
2023-03-06T21:38:25.145Z,0.71
2023-03-06T21:40:52.768Z,0.68
2023-03-06T21:43:20.367Z,0.68
2023-03-06T21:45:48.852Z,0.62
2023-03-06T21:48:16.543Z,0.62
2023-03-06T21:50:44.146Z,0.60
2023-03-06T21:53:11.969Z,0.60
2023-03-06T21:55:40.856Z,0.59
2023-03-06T21:58:08.802Z,0.58
2023-03-06T22:00:36.759Z,0.56
2023-03-06T22:03:04.791Z,0.55
2023-03-06T22:05:32.646Z,0.53
2023-03-06T22:08:00.316Z,0.53
2023-03-06T22:10:28.158Z,0.53
2023-03-06T22:12:55.754Z,0.53
2023-03-06T22:15:23.443Z,0.52
2023-03-06T22:17:51.231Z,0.51
2023-03-06T22:20:18.967Z,0.51
2023-03-06T22:22:46.600Z,0.51
2023-03-06T22:25:14.835Z,0.53
2023-03-06T22:27:42.420Z,0.56
2023-03-06T22:30:10.812Z,0.57
2023-03-06T22:32:38.504Z,0.55
2023-03-06T22:35:06.699Z,0.53
2023-03-06T22:37:34.296Z,0.52
2023-03-06T22:40:01.957Z,0.52
2023-03-06T22:42:29.600Z,0.54
2023-03-06T22:44:57.171Z,0.54
2023-03-06T22:47:24.753Z,0.54
2023-03-06T22:49:52.380Z,0.53
2023-03-06T22:52:20.024Z,0.50
2023-03-06T22:54:47.608Z,0.51
2023-03-06T22:57:15.191Z,0.49
2023-03-06T22:59:42.800Z,0.46
2023-03-06T23:02:10.394Z,0.44
2023-03-06T23:04:38.749Z,0.41
2023-03-06T23:07:06.379Z,0.40
2023-03-06T23:09:34.004Z,0.39
2023-03-06T23:12:20.522Z,0.37
2023-03-06T23:15:08.208Z,0.34
2023-03-06T23:17:54.442Z,0.30
2023-03-06T23:20:44.013Z,0.27
2023-03-06T23:23:30.346Z,0.23
2023-03-06T23:26:01.184Z,0.21
2023-03-06T23:28:28.906Z,0.16
2023-03-06T23:30:56.582Z,0.15
2023-03-06T23:33:24.544Z,0.13
2023-03-06T23:35:52.227Z,0.11
2023-03-06T23:38:19.902Z,0.08
2023-03-06T23:40:47.554Z,0.05
2023-03-06T23:43:15.158Z,-0.01
2023-03-06T23:45:52.198Z,-0.08
2023-03-06T23:48:19.860Z,-0.15
2023-03-06T23:50:47.496Z,-0.21
2023-03-06T23:53:15.671Z,-0.29
2023-03-06T23:55:45.020Z,-0.37
2023-03-06T23:58:13.589Z,-0.43
